createdAt,value
2022-08-25T00:03:23.317Z,985
2022-08-25T00:17:47.363Z,984.9
2022-08-25T00:32:14.685Z,984.9
2022-08-25T00:46:47.859Z,984.9
2022-08-25T01:01:17.773Z,984.9
2022-08-25T01:15:40.075Z,984.9
2022-08-25T01:30:07.474Z,984.9
2022-08-25T01:44:35.463Z,984.9
2022-08-25T01:59:02.549Z,984.8
2022-08-25T02:13:32.760Z,984.8
2022-08-25T02:27:58.042Z,984.7
2022-08-25T02:42:25.770Z,984.8
2022-08-25T02:56:53.621Z,984.8
2022-08-25T03:11:21.134Z,984.6
2022-08-25T03:25:49.527Z,984.5
2022-08-25T03:40:16.902Z,984.4
2022-08-25T03:54:44.630Z,984.3
2022-08-25T04:09:11.378Z,984.3
2022-08-25T04:23:38.019Z,984.2
2022-08-25T04:38:12.831Z,984.1
2022-08-25T04:52:41.215Z,984.1
2022-08-25T05:07:05.006Z,984
2022-08-25T05:21:31.066Z,984.1
2022-08-25T05:35:58.548Z,984
2022-08-25T05:50:25.943Z,983.9
2022-08-25T06:04:53.880Z,984
2022-08-25T06:19:22.260Z,983.8
2022-08-25T06:33:56.447Z,983.9
2022-08-25T06:48:27.051Z,984
2022-08-25T07:02:58.135Z,984.1
2022-08-25T07:17:29.308Z,984
2022-08-25T07:31:55.881Z,984
2022-08-25T07:46:34.736Z,984
2022-08-25T08:01:14.079Z,984
2022-08-25T08:15:44.003Z,983.9
2022-08-25T08:30:12.768Z,984
2022-08-25T08:44:42.371Z,983.8
2022-08-25T08:59:10.951Z,983.6
2022-08-25T09:13:38.553Z,983.6
2022-08-25T09:28:08.661Z,983.4
2022-08-25T09:42:28.364Z,983.2
2022-08-25T09:56:52.580Z,983
2022-08-25T10:11:19.707Z,982.8
2022-08-25T10:26:04.749Z,982.7
2022-08-25T10:40:29.203Z,982.6
2022-08-25T10:54:55.061Z,982.5
2022-08-25T11:09:21.187Z,982.3
2022-08-25T11:23:48.832Z,982.2
2022-08-25T11:38:17.431Z,982.2
2022-08-25T11:52:45.191Z,982.1
2022-08-25T12:07:14.404Z,982.1
2022-08-25T12:21:43.144Z,982
2022-08-25T12:36:12.718Z,981.8
2022-08-25T12:50:43.555Z,981.7
2022-08-25T13:05:05.612Z,981.7
2022-08-25T13:19:35.662Z,981.5
2022-08-25T13:34:00.549Z,981.3
2022-08-25T13:48:29.621Z,981.1
2022-08-25T14:02:56.621Z,981
2022-08-25T14:17:41.036Z,981
2022-08-25T14:31:55.244Z,980.9
2022-08-25T14:46:23.613Z,980.9
2022-08-25T15:00:51.029Z,980.7
2022-08-25T15:15:18.736Z,980.6
2022-08-25T15:29:44.966Z,980.4
2022-08-25T15:44:10.262Z,980.4
2022-08-25T15:58:50.234Z,980.4
2022-08-25T16:13:15.611Z,980.4
2022-08-25T16:27:45.705Z,980.4
2022-08-25T16:42:08.438Z,980.2
2022-08-25T16:56:40.732Z,980.1
2022-08-25T17:11:12.980Z,980.2
2022-08-25T17:25:33.347Z,980.2
2022-08-25T17:40:03.849Z,980.2
2022-08-25T17:54:28.679Z,980.2
2022-08-25T18:09:00.403Z,980.3
2022-08-25T18:23:22.972Z,980.4
2022-08-25T18:37:48.988Z,980.5
2022-08-25T18:52:14.082Z,980.5
2022-08-25T19:06:44.114Z,980.6
2022-08-25T19:21:07.290Z,980.6
2022-08-25T19:35:34.187Z,980.6
2022-08-25T19:50:07.539Z,980.7
2022-08-25T20:04:35.153Z,980.7
2022-08-25T20:18:57.848Z,980.8
2022-08-25T20:33:25.537Z,980.9
2022-08-25T20:47:49.688Z,980.9
2022-08-25T21:02:17.273Z,980.9
2022-08-25T21:16:44.728Z,980.8
2022-08-25T21:31:16.291Z,980.8
2022-08-25T21:45:47.445Z,980.9
2022-08-25T22:00:11.231Z,980.8
2022-08-25T22:14:34.805Z,980.8
2022-08-25T22:29:00.085Z,980.9
2022-08-25T22:43:29.035Z,980.9
2022-08-25T22:57:55.052Z,980.9
2022-08-25T23:12:22.359Z,980.8
2022-08-25T23:26:51.512Z,980.9
2022-08-25T23:41:15.274Z,980.9
2022-08-25T23:55:54.251Z,980.8
